Time;durP1;ratioP1;P1;durP2;ratioP2;P2;SDS_P1;SDS_P2;PMS_P1;PMS_P2;Temp;Humidity;BMP_temperature;BMP_pressure;BME280_temperature;BME280_humidity;BME280_pressure;Samples;Min_cycle;Max_cycle;Signal;HPM_P1;HPM_P2
2021/03/12 00:00:12;;;;;;;;;;;;;;;13.90;72.67;101323.28;4985805;28;20028;-73
2021/03/12 00:02:39;;;;;;;;;;;;;;;13.92;72.60;101321.03;4984819;28;19930;-73
2021/03/12 00:05:07;;;;;;;;;;;;;;;13.95;72.59;101314.84;4987560;28;20012;-72
2021/03/12 00:07:33;;;;;;;;;;;;;;;13.97;72.52;101326.63;4985957;28;20593;-83
2021/03/12 00:10:00;;;;;;;;;;;;;;;14.03;72.40;101319.03;4986234;28;19934;-70
2021/03/12 00:12:26;;;;;;;;;;;;;;;14.04;72.38;101322.69;4988016;28;19934;-72
2021/03/12 00:14:52;;;;;;;;;;;;;;;14.07;72.36;101316.50;4989657;28;20294;-71
2021/03/12 00:17:19;;;;;;;;;;;;;;;14.07;72.34;101299.66;4986128;28;19933;-79
2021/03/12 00:19:45;;;;;;;;;;;;;;;14.09;72.33;101322.69;4985976;28;19926;-78
2021/03/12 00:22:11;;;;;;;;;;;;;;;14.11;72.48;101311.97;4986484;28;19936;-77
2021/03/12 00:24:38;;;;;;;;;;;;;;;14.14;72.35;101314.22;4988037;28;19926;-76
2021/03/12 00:27:04;;;;;;;;;;;;;;;14.14;72.51;101312.25;4989252;28;20302;-69
2021/03/12 00:29:33;;;;;;;;;;;;;;;14.16;72.59;101317.59;4988119;28;19964;-70
2021/03/12 00:31:59;;;;;;;;;;;;;;;14.17;72.58;101306.06;4990707;28;19925;-69
2021/03/12 00:34:25;;;;;;;;;;;;;;;14.17;72.53;101308.03;4989098;28;20017;-68
2021/03/12 00:36:52;;;;;;;;;;;;;;;14.20;72.53;101307.47;4991167;28;19934;-70
2021/03/12 00:39:18;;;;;;;;;;;;;;;14.23;72.53;101316.16;4991237;28;19926;-72
2021/03/12 00:42:01;;;;;;;;;;;;;;;14.25;72.53;101317.84;4986873;28;19941;-70
2021/03/12 00:44:31;;;;;;;;;;;;;;;14.28;72.42;101306.88;4992515;28;19934;-81
2021/03/12 00:46:57;;;;;;;;;;;;;;;14.23;72.41;101304.09;4988301;28;19929;-80
2021/03/12 00:49:24;;;;;;;;;;;;;;;14.19;72.31;101303.00;4991381;28;19933;-67
2021/03/12 00:51:50;;;;;;;;;;;;;;;14.17;72.28;101305.22;4992032;28;19932;-66
2021/03/12 00:54:16;;;;;;;;;;;;;;;14.17;72.21;101306.06;4989577;28;19926;-70
2021/03/12 00:56:43;;;;;;;;;;;;;;;14.19;72.12;101314.22;4987223;28;19930;-71
2021/03/12 00:59:09;;;;;;;;;;;;;;;14.18;71.97;101307.75;4988324;28;19926;-73
2021/03/12 01:01:35;;;;;;;;;;;;;;;14.17;72.08;101303.25;4984366;28;20270;-73
2021/03/12 01:04:02;;;;;;;;;;;;;;;14.15;72.13;101296.25;4991175;28;19941;-72
2021/03/12 01:06:28;;;;;;;;;;;;;;;14.10;72.29;101296.28;4993424;28;19933;-77
2021/03/12 01:08:54;;;;;;;;;;;;;;;14.14;72.15;101303.00;4988059;28;19926;-77
2021/03/12 01:11:20;;;;;;;;;;;;;;;14.13;72.27;101309.75;4991957;28;19969;-77
2021/03/12 01:13:46;;;;;;;;;;;;;;;14.11;72.48;101311.97;4990494;28;19926;-65
2021/03/12 01:16:13;;;;;;;;;;;;;;;14.16;72.79;101314.78;4992311;28;20006;-68
2021/03/12 01:18:39;;;;;;;;;;;;;;;13.96;72.85;101310.91;4991148;28;19925;-68
2021/03/12 01:21:05;;;;;;;;;;;;;;;13.90;72.77;101309.22;4987191;28;19932;-69
2021/03/12 01:23:31;;;;;;;;;;;;;;;13.81;73.00;101310.97;4989551;28;19929;-69
2021/03/12 01:25:58;;;;;;;;;;;;;;;13.66;73.25;101313.78;4991079;28;19936;-69
2021/03/12 01:28:24;;;;;;;;;;;;;;;13.68;72.68;101311.53;4992328;28;19932;-75
2021/03/12 01:30:50;;;;;;;;;;;;;;;13.67;72.89;101307.03;4990429;28;19971;-73
2021/03/12 01:33:18;;;;;;;;;;;;;;;13.61;73.10;101308.19;4989620;28;19932;-74
2021/03/12 01:35:44;;;;;;;;;;;;;;;13.65;72.98;101309.31;4990887;28;19932;-73
2021/03/12 01:38:11;;;;;;;;;;;;;;;13.65;72.91;101298.06;4988109;28;19933;-74
2021/03/12 01:40:38;;;;;;;;;;;;;;;13.62;73.03;101298.63;4990836;28;19925;-74
2021/03/12 01:43:05;;;;;;;;;;;;;;;13.64;72.92;101293.56;4989381;28;20366;-80
2021/03/12 01:45:33;;;;;;;;;;;;;;;13.65;72.95;101295.25;4988458;28;19926;-79
2021/03/12 01:48:01;;;;;;;;;;;;;;;13.66;72.81;101300.59;4987470;28;19926;-74
2021/03/12 01:50:27;;;;;;;;;;;;;;;13.69;72.85;101299.19;4991200;28;19937;-72
2021/03/12 01:52:53;;;;;;;;;;;;;;;13.70;72.95;101295.25;4987253;28;19925;-70
2021/03/12 01:55:28;;;;;;;;;;;;;;;13.69;72.95;101291.59;4990195;28;20012;-70
2021/03/12 01:57:54;;;;;;;;;;;;;;;13.70;72.85;101284.00;4990973;28;19926;-70
2021/03/12 02:00:21;;;;;;;;;;;;;;;13.70;72.95;101281.22;4988043;28;19930;-75
2021/03/12 02:02:47;;;;;;;;;;;;;;;13.69;73.07;101287.94;4986289;28;19930;-75
2021/03/12 02:05:14;;;;;;;;;;;;;;;13.70;72.90;101284.84;4991459;28;19930;-76
2021/03/12 02:07:40;;;;;;;;;;;;;;;13.71;72.94;101285.72;4991494;28;19953;-77
2021/03/12 02:10:09;;;;;;;;;;;;;;;13.70;72.89;101295.25;4989579;28;20289;-75
2021/03/12 02:12:44;;;;;;;;;;;;;;;13.70;72.79;101290.47;4988305;28;19936;-67
2021/03/12 02:15:22;;;;;;;;;;;;;;;13.68;72.70;101280.66;4989551;28;19926;-65
2021/03/12 02:17:54;;;;;;;;;;;;;;;13.67;72.81;101273.34;4989061;28;19925;-65
2021/03/12 02:20:29;;;;;;;;;;;;;;;13.67;72.88;101274.19;4988039;28;19930;-64
2021/03/12 02:23:11;;;;;;;;;;;;;;;13.70;72.76;101273.63;4988251;28;19934;-66
2021/03/12 02:25:41;;;;;;;;;;;;;;;13.70;72.76;101272.78;4990530;28;19933;-65
2021/03/12 02:28:07;;;;;;;;;;;;;;;13.70;72.72;101276.44;4988286;28;19926;-65
2021/03/12 02:30:34;;;;;;;;;;;;;;;13.71;72.81;101269.72;4990428;28;19985;-65
2021/03/12 02:33:01;;;;;;;;;;;;;;;13.74;72.79;101257.91;4988076;28;19926;-65
2021/03/12 02:35:27;;;;;;;;;;;;;;;13.77;72.73;101261.25;4989218;28;19929;-67
2021/03/12 02:37:54;;;;;;;;;;;;;;;13.78;72.80;101249.75;4990752;28;19925;-67
2021/03/12 02:40:21;;;;;;;;;;;;;;;13.81;72.69;101248.34;4989198;28;19926;-67
2021/03/12 02:42:47;;;;;;;;;;;;;;;13.83;72.69;101237.66;4990183;28;19926;-66
2021/03/12 02:45:16;;;;;;;;;;;;;;;13.86;72.67;101242.72;4989381;28;20349;-66
2021/03/12 02:47:42;;;;;;;;;;;;;;;13.86;72.58;101246.34;4988881;28;19950;-67
2021/03/12 02:50:10;;;;;;;;;;;;;;;13.85;72.69;101244.69;4988174;28;19979;-66
2021/03/12 02:52:37;;;;;;;;;;;;;;;13.85;72.66;101247.50;4987066;28;19932;-66
2021/03/12 02:55:04;;;;;;;;;;;;;;;13.86;72.46;101251.13;4991527;28;19930;-66
2021/03/12 02:57:30;;;;;;;;;;;;;;;13.85;72.55;101253.13;4987107;28;20393;-67
2021/03/12 02:59:57;;;;;;;;;;;;;;;13.87;72.63;101261.22;4991510;28;19941;-68
2021/03/12 03:02:27;;;;;;;;;;;;;;;13.89;72.47;101265.44;4987097;28;20271;-66
2021/03/12 03:04:55;;;;;;;;;;;;;;;13.91;72.42;101263.22;4985333;28;19930;-66
2021/03/12 03:07:21;;;;;;;;;;;;;;;13.94;72.44;101264.56;4983233;28;20407;-66
2021/03/12 03:09:49;;;;;;;;;;;;;;;13.94;72.41;101253.34;4988352;28;19930;-64
2021/03/12 03:12:17;;;;;;;;;;;;;;;13.94;72.45;101256.16;4984951;28;19932;-64
2021/03/12 03:14:48;;;;;;;;;;;;;;;13.93;72.39;101251.66;4990651;28;19929;-64
2021/03/12 03:17:15;;;;;;;;;;;;;;;13.94;72.20;101256.16;4988452;28;19930;-64
2021/03/12 03:19:44;;;;;;;;;;;;;;;13.94;72.40;101245.75;4988067;28;20354;-64
2021/03/12 03:22:11;;;;;;;;;;;;;;;13.94;72.36;101242.94;4989808;28;20555;-64
2021/03/12 03:24:38;;;;;;;;;;;;;;;13.94;72.38;101247.72;4990401;28;19933;-63
2021/03/12 03:27:06;;;;;;;;;;;;;;;13.92;72.36;101245.22;4989817;28;19925;-64
2021/03/12 03:29:32;;;;;;;;;;;;;;;13.89;72.41;101240.19;4983688;28;19930;-66
2021/03/12 03:31:59;;;;;;;;;;;;;;;13.85;72.46;101235.44;4987414;28;19930;-65
2021/03/12 03:34:25;;;;;;;;;;;;;;;13.85;72.66;101233.47;4988041;28;19934;-66
2021/03/12 03:36:52;;;;;;;;;;;;;;;13.88;72.59;101240.44;4990553;28;19937;-66
2021/03/12 03:39:18;;;;;;;;;;;;;;;13.92;72.51;101242.41;4989011;28;20052;-66
2021/03/12 03:41:47;;;;;;;;;;;;;;;13.87;72.67;101234.00;4989833;28;19933;-65
2021/03/12 03:44:18;;;;;;;;;;;;;;;13.85;72.49;101241.88;4989274;28;19936;-62
2021/03/12 03:46:45;;;;;;;;;;;;;;;13.81;72.34;101235.16;4988562;28;19932;-62
2021/03/12 03:49:13;;;;;;;;;;;;;;;13.79;72.25;101237.41;4989005;28;20381;-61
2021/03/12 03:51:41;;;;;;;;;;;;;;;13.65;72.37;101236.31;4987373;28;19926;-62
2021/03/12 03:54:11;;;;;;;;;;;;;;;13.61;72.63;101246.44;4985702;28;19930;-62
2021/03/12 03:56:38;;;;;;;;;;;;;;;13.82;73.31;101241.63;4987369;28;19930;-62
2021/03/12 03:59:05;;;;;;;;;;;;;;;13.74;73.46;101238.28;4987484;28;19977;-63
2021/03/12 04:01:32;;;;;;;;;;;;;;;13.93;73.29;101227.25;4983261;28;20020;-62
2021/03/12 04:03:59;;;;;;;;;;;;;;;13.90;73.06;101229.78;4988989;28;19940;-64
2021/03/12 04:06:29;;;;;;;;;;;;;;;13.87;72.88;101228.38;4985698;28;19930;-64
2021/03/12 04:08:57;;;;;;;;;;;;;;;13.79;72.82;101233.75;4994805;28;19926;-63
2021/03/12 04:11:24;;;;;;;;;;;;;;;13.72;72.67;101234.06;4991149;28;19926;-62
2021/03/12 04:13:51;;;;;;;;;;;;;;;13.67;72.63;101228.44;4993030;28;19926;-63
2021/03/12 04:16:18;;;;;;;;;;;;;;;13.65;72.49;101219.47;4993090;28;19930;-65
2021/03/12 04:18:45;;;;;;;;;;;;;;;13.57;72.29;101220.88;4993720;28;19926;-63
2021/03/12 04:21:12;;;;;;;;;;;;;;;13.51;72.30;101228.50;4991328;28;19932;-65
2021/03/12 04:23:38;;;;;;;;;;;;;;;13.47;72.02;101221.78;4993030;28;19948;-65
2021/03/12 04:26:05;;;;;;;;;;;;;;;13.40;71.88;101218.44;4991959;28;19926;-64
2021/03/12 04:28:31;;;;;;;;;;;;;;;13.32;71.77;101218.97;4992864;28;19930;-66
2021/03/12 04:30:57;;;;;;;;;;;;;;;13.12;72.16;101227.38;4992205;28;20484;-65
2021/03/12 04:33:24;;;;;;;;;;;;;;;13.12;71.81;101221.78;4993865;28;20347;-66
2021/03/12 04:35:50;;;;;;;;;;;;;;;13.07;71.71;101230.22;4990167;28;20382;-64
2021/03/12 04:38:17;;;;;;;;;;;;;;;13.01;71.74;101229.34;4991849;28;20287;-64
2021/03/12 04:40:43;;;;;;;;;;;;;;;12.97;71.84;101234.69;4991851;28;19934;-65
2021/03/12 04:43:09;;;;;;;;;;;;;;;12.94;71.70;101237.19;4990911;28;19930;-66
2021/03/12 04:45:36;;;;;;;;;;;;;;;12.89;71.70;101232.44;4988609;28;19988;-65
2021/03/12 04:48:02;;;;;;;;;;;;;;;12.86;71.64;101229.38;4993522;28;20169;-65
2021/03/12 04:50:28;;;;;;;;;;;;;;;12.83;71.74;101233.56;4985813;28;20408;-64
2021/03/12 04:52:55;;;;;;;;;;;;;;;12.79;71.80;101229.63;5024147;23;20377;-66
2021/03/12 04:55:22;;;;;;;;;;;;;;;12.78;71.74;101225.13;5030834;28;20035;-70
2021/03/12 04:57:49;;;;;;;;;;;;;;;12.74;71.93;101221.22;5026702;28;20289;-66
2021/03/12 05:00:15;;;;;;;;;;;;;;;12.70;71.96;101222.91;5030487;28;19925;-67
2021/03/12 05:02:42;;;;;;;;;;;;;;;12.71;71.83;101227.38;5029926;28;19990;-67
2021/03/12 05:05:11;;;;;;;;;;;;;;;12.67;71.78;101234.66;5025056;28;19932;-67
2021/03/12 05:07:38;;;;;;;;;;;;;;;12.62;71.85;101237.47;5028829;28;19926;-65
2021/03/12 05:10:06;;;;;;;;;;;;;;;12.55;71.95;101232.97;5027103;28;19932;-64
2021/03/12 05:12:33;;;;;;;;;;;;;;;12.51;72.05;101237.44;5028032;28;20300;-69
2021/03/12 05:15:00;;;;;;;;;;;;;;;12.47;72.00;101238.25;5025910;28;19925;-66
2021/03/12 05:17:27;;;;;;;;;;;;;;;12.43;71.92;101231.53;5028522;28;19933;-66
2021/03/12 05:19:53;;;;;;;;;;;;;;;12.39;71.94;101236.00;5027649;28;20366;-65
2021/03/12 05:22:19;;;;;;;;;;;;;;;12.35;72.01;101240.47;5028190;28;19925;-64
2021/03/12 05:24:45;;;;;;;;;;;;;;;12.28;71.87;101235.13;5030409;28;19925;-64
2021/03/12 05:27:12;;;;;;;;;;;;;;;12.28;71.79;101233.19;5026421;28;19990;-64
2021/03/12 05:29:38;;;;;;;;;;;;;;;12.32;71.49;101230.66;5029331;28;19925;-67
2021/03/12 05:32:04;;;;;;;;;;;;;;;12.35;71.39;101234.88;5026103;28;20294;-67
2021/03/12 05:34:31;;;;;;;;;;;;;;;12.35;71.42;101232.91;5031742;28;19925;-63
2021/03/12 05:36:57;;;;;;;;;;;;;;;12.32;71.49;101234.31;5028947;28;20027;-75
2021/03/12 05:39:23;;;;;;;;;;;;;;;12.32;71.44;101237.09;5012870;28;19947;-71
2021/03/12 05:41:50;;;;;;;;;;;;;;;12.31;71.17;101229.00;5026940;28;19936;-71
2021/03/12 05:44:16;;;;;;;;;;;;;;;12.30;71.37;101239.31;5029542;28;19959;-70
2021/03/12 05:46:43;;;;;;;;;;;;;;;12.28;71.19;101249.97;5022208;28;20020;-71
2021/03/12 05:49:10;;;;;;;;;;;;;;;12.28;71.07;101257.53;5028651;28;19929;-72
2021/03/12 05:51:36;;;;;;;;;;;;;;;12.27;71.13;101255.84;5025105;28;19936;-73
2021/03/12 05:54:03;;;;;;;;;;;;;;;12.24;71.08;101257.25;5028739;28;19925;-71
2021/03/12 05:56:29;;;;;;;;;;;;;;;12.23;71.11;101265.91;5022204;28;19933;-72
2021/03/12 05:58:57;;;;;;;;;;;;;;;12.20;71.18;101275.69;5025435;28;19933;-67
2021/03/12 06:01:23;;;;;;;;;;;;;;;12.19;71.09;101285.22;5025074;28;19925;-69
2021/03/12 06:03:49;;;;;;;;;;;;;;;12.17;71.02;101281.00;5025881;28;19929;-69
2021/03/12 06:06:15;;;;;;;;;;;;;;;12.15;71.14;101280.44;5025843;28;19932;-68
2021/03/12 06:08:42;;;;;;;;;;;;;;;12.13;70.98;101277.06;5029369;28;19925;-69
2021/03/12 06:11:08;;;;;;;;;;;;;;;12.09;70.98;101277.63;5021485;28;19933;-68
2021/03/12 06:13:50;;;;;;;;;;;;;;;12.08;71.18;101277.91;5023431;28;19926;-69
2021/03/12 06:16:29;;;;;;;;;;;;;;;12.06;71.13;101286.56;5026676;28;20267;-66
2021/03/12 06:19:13;;;;;;;;;;;;;;;12.04;71.08;101282.38;5022197;28;19987;-65
2021/03/12 06:21:39;;;;;;;;;;;;;;;12.02;71.04;101287.38;5023234;28;19929;-69
2021/03/12 06:24:24;;;;;;;;;;;;;;;12.00;71.25;101296.06;5010676;28;19932;-70
2021/03/12 06:26:51;;;;;;;;;;;;;;;11.98;71.01;101298.28;5020680;28;19933;-68
2021/03/12 06:29:17;;;;;;;;;;;;;;;11.97;71.08;101285.41;5023893;28;19925;-67
2021/03/12 06:31:52;;;;;;;;;;;;;;;11.96;71.06;101286.50;5024326;28;19925;-75
2021/03/12 06:34:19;;;;;;;;;;;;;;;11.94;71.05;101293.50;5023799;28;20302;-70
2021/03/12 06:36:45;;;;;;;;;;;;;;;11.92;71.24;101282.56;5024171;28;20298;-65
2021/03/12 06:39:11;;;;;;;;;;;;;;;11.92;71.30;101287.34;5028722;28;20279;-66
2021/03/12 06:41:39;;;;;;;;;;;;;;;11.92;71.07;101292.94;5026407;28;19982;-74
2021/03/12 06:44:23;;;;;;;;;;;;;;;11.92;71.37;101298.53;5029692;28;19929;-63
2021/03/12 06:46:52;;;;;;;;;;;;;;;11.89;71.29;101297.09;5020319;28;22012;-63
2021/03/12 06:49:19;;;;;;;;;;;;;;;11.89;71.15;101299.06;5024858;28;20301;-64
2021/03/12 06:51:52;;;;;;;;;;;;;;;11.85;71.23;101301.56;5026191;28;19924;-63
2021/03/12 06:54:18;;;;;;;;;;;;;;;11.81;71.35;101295.63;5024660;28;19926;-64
2021/03/12 06:56:45;;;;;;;;;;;;;;;11.82;71.28;101285.28;5020394;28;19939;-65
2021/03/12 06:59:11;;;;;;;;;;;;;;;11.75;71.35;101288.31;5025821;28;19925;-65
2021/03/12 07:01:38;;;;;;;;;;;;;;;11.69;71.63;101299.75;5017959;28;20286;-66
2021/03/12 07:04:10;;;;;;;;;;;;;;;11.75;71.62;101307.06;5023199;28;19932;-65
2021/03/12 07:06:43;;;;;;;;;;;;;;;11.76;71.55;101309.63;5020941;28;19932;-66
2021/03/12 07:09:10;;;;;;;;;;;;;;;11.80;71.60;101307.13;5019722;28;20398;-65
2021/03/12 07:11:36;;;;;;;;;;;;;;;11.88;71.46;101316.97;5011416;28;19932;-65
2021/03/12 07:14:03;;;;;;;;;;;;;;;11.91;71.61;101320.09;5020317;28;19929;-68
2021/03/12 07:16:29;;;;;;;;;;;;;;;11.93;71.39;101311.41;5025186;28;19929;-66
2021/03/12 07:18:56;;;;;;;;;;;;;;;11.97;71.42;101312.56;5022431;28;19937;-63
2021/03/12 07:21:23;;;;;;;;;;;;;;;12.02;71.59;101310.63;5021635;28;19925;-64
2021/03/12 07:23:51;;;;;;;;;;;;;;;12.13;71.67;101321.88;5026873;28;19932;-63
2021/03/12 07:26:18;;;;;;;;;;;;;;;12.21;71.62;101324.16;5020592;28;19933;-63
2021/03/12 07:28:45;;;;;;;;;;;;;;;12.27;71.85;101315.53;5019883;28;20319;-65
2021/03/12 07:31:15;;;;;;;;;;;;;;;12.38;71.65;101321.16;5022488;28;20389;-66
2021/03/12 07:33:45;;;;;;;;;;;;;;;12.48;71.78;101326.81;5022553;28;20051;-65
2021/03/12 07:36:13;;;;;;;;;;;;;;;12.59;72.02;101330.47;5023597;28;19940;-65
2021/03/12 07:38:40;;;;;;;;;;;;;;;12.72;72.10;101327.16;5021582;28;19970;-64
2021/03/12 07:41:07;;;;;;;;;;;;;;;12.94;72.09;101335.31;5023302;28;19932;-65
2021/03/12 07:43:35;;;;;;;;;;;;;;;13.15;72.11;101334.22;5018229;28;19925;-65
2021/03/12 07:46:02;;;;;;;;;;;;;;;13.39;72.12;101345.78;5018997;28;20541;-65
2021/03/12 07:48:29;;;;;;;;;;;;;;;13.27;72.10;101291.94;5026256;28;19936;-64
2021/03/12 07:51:03;;;;;;;;;;;;;;;13.78;72.35;101350.81;5026191;28;19940;-65
2021/03/12 07:53:47;;;;;;;;;;;;;;;13.96;72.66;101350.22;5024363;28;20408;-64
2021/03/12 07:56:15;;;;;;;;;;;;;;;14.22;72.76;101352.94;5024710;28;19929;-65
2021/03/12 07:58:55;;;;;;;;;;;;;;;14.43;72.77;101348.97;5025861;28;19932;-64
2021/03/12 08:01:22;;;;;;;;;;;;;;;14.82;72.61;101347.41;5019058;28;20420;-65
2021/03/12 08:03:50;;;;;;;;;;;;;;;15.19;72.56;101352.50;5025820;28;19929;-64
2021/03/12 08:06:16;;;;;;;;;;;;;;;15.43;72.11;101360.22;5019687;28;19933;-64
2021/03/12 08:08:42;;;;;;;;;;;;;;;15.65;72.08;101374.66;5025268;28;20274;-65
2021/03/12 08:11:32;;;;;;;;;;;;;;;15.87;72.08;101377.88;5025178;28;20370;-65
2021/03/12 08:14:16;;;;;;;;;;;;;;;16.15;71.51;101375.34;5022711;28;19925;-66
2021/03/12 08:16:58;;;;;;;;;;;;;;;16.41;70.95;101380.69;5024717;28;20786;-66
2021/03/12 08:19:29;;;;;;;;;;;;;;;16.69;70.45;101387.41;5023494;28;19933;-66
2021/03/12 08:21:58;;;;;;;;;;;;;;;16.96;69.98;101375.53;5025860;28;20293;-67
2021/03/12 08:24:47;;;;;;;;;;;;;;;17.15;69.71;101390.47;5025096;28;19936;-66
2021/03/12 08:27:32;;;;;;;;;;;;;;;17.41;68.98;101388.09;5029400;28;19933;-66
2021/03/12 08:29:58;;;;;;;;;;;;;;;17.63;68.47;101392.25;5026940;28;19929;-66
2021/03/12 08:32:34;;;;;;;;;;;;;;;17.87;68.15;101401.47;5023877;28;19925;-63
2021/03/12 08:35:00;;;;;;;;;;;;;;;18.13;67.38;101393.41;5023321;28;19936;-68
2021/03/12 08:37:27;;;;;;;;;;;;;;;18.34;66.52;101401.47;5023192;28;19925;-65
2021/03/12 08:40:12;;;;;;;;;;;;;;;18.61;66.10;101398.66;5024917;28;20008;-64
2021/03/12 08:42:57;;;;;;;;;;;;;;;18.77;65.17;101406.84;5024611;28;19925;-65
2021/03/12 08:45:39;;;;;;;;;;;;;;;18.38;64.82;101406.19;5025171;28;19944;-65
2021/03/12 08:48:06;;;;;;;;;;;;;;;17.98;65.73;101407.78;5027189;28;19929;-64
2021/03/12 08:50:38;;;;;;;;;;;;;;;18.36;65.10;101419.81;5028958;28;19936;-64
2021/03/12 08:53:07;;;;;;;;;;;;;;;18.76;64.55;101417.34;5025999;28;19933;-63
2021/03/12 08:55:34;;;;;;;;;;;;;;;19.04;63.72;101423.84;5026035;28;19925;-69
2021/03/12 08:58:30;;;;;;;;;;;;;;;19.37;63.05;101424.47;5027199;28;19929;-63
2021/03/12 09:00:59;;;;;;;;;;;;;;;19.70;62.60;101429.97;5013798;28;19929;-65
2021/03/12 09:03:29;;;;;;;;;;;;;;;19.99;62.39;101426.69;5024362;28;20330;-65
2021/03/12 09:06:08;;;;;;;;;;;;;;;20.32;61.70;101434.91;5005766;28;19933;-67
2021/03/12 09:08:35;;;;;;;;;;;;;;;20.54;61.06;101436.88;5025570;28;20011;-66
2021/03/12 09:11:02;;;;;;;;;;;;;;;20.58;61.51;101444.41;5020076;28;19929;-65
2021/03/12 09:13:30;;;;;;;;;;;;;;;20.81;61.13;101447.16;5024255;28;20390;-66
2021/03/12 09:15:56;;;;;;;;;;;;;;;21.09;59.83;101432.72;5029565;28;19929;-66
2021/03/12 09:18:35;;;;;;;;;;;;;;;21.12;60.40;101446.25;5023918;28;19937;-66
2021/03/12 09:21:03;;;;;;;;;;;;;;;21.37;59.45;101442.69;5027750;28;19932;-67
2021/03/12 09:23:36;;;;;;;;;;;;;;;21.57;58.91;101446.00;5027823;28;19929;-66
2021/03/12 09:26:06;;;;;;;;;;;;;;;21.81;58.23;101454.88;5022389;28;19929;-66
2021/03/12 09:28:35;;;;;;;;;;;;;;;22.11;57.54;101453.00;5027519;28;19936;-67
2021/03/12 09:31:02;;;;;;;;;;;;;;;22.84;57.87;101450.16;5026064;28;19952;-63
2021/03/12 09:33:30;;;;;;;;;;;;;;;23.46;57.31;101456.38;5028319;28;19933;-66
2021/03/12 09:35:57;;;;;;;;;;;;;;;24.10;56.61;101465.41;5023611;28;20293;-67
2021/03/12 09:38:31;;;;;;;;;;;;;;;24.32;56.56;101467.00;5019387;28;19925;-66
2021/03/12 09:40:57;;;;;;;;;;;;;;;24.39;57.00;101468.47;5019575;28;19940;-64
2021/03/12 09:43:24;;;;;;;;;;;;;;;24.15;56.87;101470.03;5020940;28;19984;-66
2021/03/12 09:45:51;;;;;;;;;;;;;;;23.84;58.31;101473.38;5020387;28;19929;-67
2021/03/12 09:48:17;;;;;;;;;;;;;;;23.56;58.49;101465.34;5021282;28;20088;-67
2021/03/12 09:50:44;;;;;;;;;;;;;;;23.11;59.39;101470.81;5023016;28;19933;-68
2021/03/12 09:53:10;;;;;;;;;;;;;;;22.65;59.23;101459.09;5021849;28;20333;-66
2021/03/12 09:55:37;;;;;;;;;;;;;;;22.20;59.35;101464.44;5022972;28;19929;-65
2021/03/12 09:58:06;;;;;;;;;;;;;;;21.91;59.07;101468.75;5023680;28;20412;-67
2021/03/12 10:00:32;;;;;;;;;;;;;;;21.70;59.32;101479.97;5022412;28;19929;-67
2021/03/12 10:03:00;;;;;;;;;;;;;;;21.51;59.57;101483.16;5023867;28;19925;-67
2021/03/12 10:05:27;;;;;;;;;;;;;;;22.06;59.05;101486.50;5023104;28;20030;-67
2021/03/12 10:08:00;;;;;;;;;;;;;;;22.78;58.29;101482.84;5020992;28;20263;-66
2021/03/12 10:10:30;;;;;;;;;;;;;;;22.77;58.36;101478.31;5022014;28;20061;-70
2021/03/12 10:12:59;;;;;;;;;;;;;;;22.52;58.92;101479.25;5020468;28;19940;-68
2021/03/12 10:15:39;;;;;;;;;;;;;;;22.14;59.51;101482.81;5024026;28;19935;-68
2021/03/12 10:18:17;;;;;;;;;;;;;;;21.72;59.16;101489.00;5019414;28;19925;-66
2021/03/12 10:20:43;;;;;;;;;;;;;;;22.14;59.23;101483.63;5021451;28;19939;-68
2021/03/12 10:23:10;;;;;;;;;;;;;;;22.82;59.13;101483.81;5019357;28;19936;-67
2021/03/12 10:25:37;;;;;;;;;;;;;;;23.59;58.09;101483.75;5018419;28;20389;-67
2021/03/12 10:28:08;;;;;;;;;;;;;;;24.31;57.22;101496.75;5017720;28;19933;-68
2021/03/12 10:30:48;;;;;;;;;;;;;;;25.03;56.59;101493.59;5017622;28;19933;-67
2021/03/12 10:33:23;;;;;;;;;;;;;;;25.14;54.69;101483.38;5008950;28;20285;-65
2021/03/12 10:35:50;;;;;;;;;;;;;;;24.83;54.55;101481.91;5023663;28;19933;-66
2021/03/12 10:38:18;;;;;;;;;;;;;;;24.79;53.12;101480.13;5018471;28;19925;-66
2021/03/12 10:40:47;;;;;;;;;;;;;;;24.77;53.09;101473.91;5026477;28;20026;-65
2021/03/12 10:43:24;;;;;;;;;;;;;;;24.56;54.41;101474.00;5022293;28;19932;-64
2021/03/12 10:45:51;;;;;;;;;;;;;;;24.52;52.37;101473.88;5022963;28;19995;-65
2021/03/12 10:48:18;;;;;;;;;;;;;;;24.44;52.15;101473.97;5022785;28;19925;-68
2021/03/12 10:50:59;;;;;;;;;;;;;;;24.40;52.33;101475.84;5022702;28;21407;-65
2021/03/12 10:53:26;;;;;;;;;;;;;;;24.49;52.70;101466.03;5024185;28;20286;-66
2021/03/12 10:56:00;;;;;;;;;;;;;;;24.62;51.20;101466.88;5025552;28;20370;-66
2021/03/12 10:58:28;;;;;;;;;;;;;;;24.25;50.23;101412.53;5022342;28;19986;-66
2021/03/12 11:01:18;;;;;;;;;;;;;;;24.17;51.16;101398.34;5023759;28;20007;-65
2021/03/12 11:03:45;;;;;;;;;;;;;;;24.52;51.04;101455.91;5024830;28;19925;-76
2021/03/12 11:06:18;;;;;;;;;;;;;;;24.64;50.20;101452.25;5026779;28;19929;-67
2021/03/12 11:08:45;;;;;;;;;;;;;;;24.91;49.80;101450.72;5020842;28;20310;-69
2021/03/12 11:11:14;;;;;;;;;;;;;;;25.07;49.16;101445.97;5017796;28;20321;-67
2021/03/12 11:13:41;;;;;;;;;;;;;;;25.20;49.01;101432.53;5024337;28;20370;-68
2021/03/12 11:16:08;;;;;;;;;;;;;;;25.40;49.95;101439.28;5022954;28;19976;-68
2021/03/12 11:18:35;;;;;;;;;;;;;;;25.93;49.58;101435.22;5024480;28;19925;-70
2021/03/12 11:21:06;;;;;;;;;;;;;;;26.39;48.62;101434.84;5023328;28;19925;-69
2021/03/12 11:23:33;;;;;;;;;;;;;;;25.86;49.00;101435.00;5022624;28;20640;-68
2021/03/12 11:25:59;;;;;;;;;;;;;;;25.42;50.24;101423.44;5023976;28;20098;-69
2021/03/12 11:28:26;;;;;;;;;;;;;;;25.67;49.93;101432.75;5022856;28;20022;-70
2021/03/12 11:30:53;;;;;;;;;;;;;;;24.92;50.87;101435.22;5025925;28;20392;-69
2021/03/12 11:33:19;;;;;;;;;;;;;;;23.82;52.65;101432.94;5021008;28;19929;-70
2021/03/12 11:35:45;;;;;;;;;;;;;;;23.10;52.94;101434.94;5023118;28;19940;-69
2021/03/12 11:38:11;;;;;;;;;;;;;;;22.54;53.42;101435.03;5018161;28;20271;-69
2021/03/12 11:40:38;;;;;;;;;;;;;;;22.68;53.20;101434.81;5027896;28;19981;-68
2021/03/12 11:43:05;;;;;;;;;;;;;;;22.65;53.05;101424.94;5023030;28;20584;-68
2021/03/12 11:45:31;;;;;;;;;;;;;;;22.39;53.28;101424.19;5011924;28;20546;-69
2021/03/12 11:47:58;;;;;;;;;;;;;;;21.95;53.73;101424.28;5020988;28;19931;-69
2021/03/12 11:50:32;;;;;;;;;;;;;;;22.87;53.13;101418.16;5027184;28;19932;-69
2021/03/12 11:52:59;;;;;;;;;;;;;;;23.82;50.94;101413.78;5024373;28;19932;-69
2021/03/12 11:55:25;;;;;;;;;;;;;;;24.66;49.96;101416.44;5027570;28;19956;-70
2021/03/12 11:57:54;;;;;;;;;;;;;;;25.32;49.16;101420.25;5027681;28;19925;-68
2021/03/12 12:00:20;;;;;;;;;;;;;;;26.18;46.29;101407.28;5026678;28;20321;-69
2021/03/12 12:02:48;;;;;;;;;;;;;;;27.41;44.40;101403.47;5025979;28;20055;-69
2021/03/12 12:05:15;;;;;;;;;;;;;;;27.62;44.24;101409.72;5026464;28;19964;-69
2021/03/12 12:07:41;;;;;;;;;;;;;;;25.71;45.95;101387.97;5027775;28;20413;-69
2021/03/12 12:10:09;;;;;;;;;;;;;;;24.20;48.80;101383.38;5022460;28;20374;-69
2021/03/12 12:12:41;;;;;;;;;;;;;;;23.31;49.17;101395.09;5019985;28;20298;-69
2021/03/12 12:15:08;;;;;;;;;;;;;;;22.69;50.35;101396.59;5018626;28;20344;-68
2021/03/12 12:17:35;;;;;;;;;;;;;;;24.32;48.41;101395.66;5025588;28;19926;-68
2021/03/12 12:20:03;;;;;;;;;;;;;;;26.46;44.50;101384.34;5017548;28;20446;-68
2021/03/12 12:22:30;;;;;;;;;;;;;;;28.15;41.71;101385.38;5022413;28;20003;-68
2021/03/12 12:24:56;;;;;;;;;;;;;;;29.09;41.04;101385.81;5019500;28;19926;-67
2021/03/12 12:27:23;;;;;;;;;;;;;;;29.72;39.40;101382.22;5024698;28;20420;-68
2021/03/12 12:29:49;;;;;;;;;;;;;;;30.04;39.36;101390.41;5024153;28;19983;-68
2021/03/12 12:32:19;;;;;;;;;;;;;;;30.59;38.21;101394.28;5026825;28;20035;-67
2021/03/12 12:34:45;;;;;;;;;;;;;;;31.68;37.04;101385.19;5022891;28;19940;-69
2021/03/12 12:37:11;;;;;;;;;;;;;;;30.55;38.03;101386.84;5025642;28;20267;-74
2021/03/12 12:39:38;;;;;;;;;;;;;;;29.34;38.81;101392.78;5023524;28;19932;-64
2021/03/12 12:42:07;;;;;;;;;;;;;;;27.11;40.94;101400.28;5023038;28;20661;-71